Terminal Aerodrome Forecast
Issued by NWS Duluth, MN

Home | Current Version | Previous Version | Text Only | Print | Product List | Glossary On
Versions: 1 2 3 4 5 6 7 8 9 10 11 12 13 14 15 16 17 18 19
400
FTUS43 KDLH 281723
TAFINL
TAF
KINL 281723Z 2818/2918 04005KT 3SM -DZ VCSH SCT008 OVC015
      TEMPO 2818/2822 2SM -RA BR OVC007
     FM290000 VRB02KT 1SM -DZ BR VCSH OVC003
     FM291200 30007KT 4SM BR OVC008
     FM291600 30010KT P6SM BKN015=

USA.gov is the U.S. government's official web portal to all federal, state and local government web resources and services.